Traverse City, MI

7:02 PM EDT on March 30, 2015 (GMT -0400)
Hills of Westbrook | | Change Station
CLOSE
Current Station
Personal Weather Station
Location: Traverse City, MI
Elevation: 1043 ft
Nearby Weather Stations

Elev 1043 ft 44.76 °N, 85.69 °W | Updated 13 seconds ago

Partly Cloudy
Partly Cloudy
39.7 °F
Feels Like 37 °F
N
4.5
Wind Variable Wind from NE
Gusts 7.4 mph

Today
High -- | Low -- °F
--% Chance of Precip.
Yesterday
High -- | Low -- °F
Precip. -- in
7:27 AM 8:07 PM
Waxing Gibbous, 82% visible
Pressure 29.91 in
Visibility 10.0 miles
Clouds Mostly Cloudy 21000 ft
Windchill 37 °F
Dew Point 23 °F
Humidity 51%
Rainfall 0.00 in
Snow Depth Not available.
UV 0 out of 12
Pollen 5.20 out of 12
Air Quality Not available.
Flu Activity Not available.
METAR KTVC 302253Z 02005KT 10SM BKN210 04/M02 A2989 RMK AO2 SLP128 T00391022

More Conditions Fewer Conditions

Pressure 29.91 in
Visibility 10.0 miles
Clouds Mostly Cloudy 21000 ft
Windchill 37 °F
Dew Point 23 °F
Humidity 51%
Rainfall 0.00 in
Snow Depth Not available.
UV 0 out of 12
Pollen 5.20 out of 12
Air Quality Not available.
Flu Activity Not available.
METAR KTVC 302253Z 02005KT 10SM BKN210 04/M02 A2989 RMK AO2 SLP128 T00391022

More Conditions Fewer Conditions

Nowcast | as of 7:00 PM EDT on March 30, 2015

At 8 PM...partly cloudy. Chance of rain and snow. Temperature 39. North winds 5 mph. At 10 PM...mostly cloudy. Chance of rain and snow. Temperature 34. Light winds. At 12 am...mostly cloudy. Chance of snow. Temperature 32. Light winds. At 2 am...mostly cloudy. Chance of snow. Temperature 29. Northeast winds 5 mph.

×

10-Day Weather Forecast

Almanac

Astronomy

Mar. 30, 2015 Rise Set
Actual Time
Civil Twilight
Nautical Twilight
Astronomical Twilight
Moon
Length of Visible Light
Length of Day
Tomorrow will be .
, % of the Moon is Illuminated

Today's Extremes

State Highs State Lows

Community

WunderPhotos

Upload Photos

1,809,617 photos uploaded!

WunderBlogs® & News

Nearby

Air Quality

  Air Quality AQ Index Pollutant
Not available.

Snow Depth

Station Depth Elevation

Earthquake Activity

City Distance Mag. Time & Date
Minimum magnitude displayed is 2.5.

Coastal Water Temperatures

Place Temperature

Stations

Nearby Weather Stations

Station Location Temp. Windchill Dew Point Humidity Wind Precip. Elev Updated Type